KHPN

Westchester County Airport

White Plains, New York, USA
METAR KHPN 221856Z 24004KT 10SM FEW030 BKN120 09/M01 A3016 RMK AO2 SLP219 T00891011
Observed Flight Rules
Oct-22 @ 18:56 UTC (41 minutes ago) Visual Flight Rules
Wind Visibility Clouds
240° at 4 knots 10 miles
  • Few at 3,000' AGL
  • Broken at 12,000' AGL
Temperatures Readings
Current 9°C / 48°F
Dewpoint -1°C / 30°F
Humidity 50%
Altimeter 30.16" Hg
Pressure 1021.9 hPa
Elevation 121
METAR KHPN 221856Z 24004KT 10SM FEW030 BKN120 09/M01 A3016 RMK AO2 SLP219 T00891011
Observed Flight Rules
Oct-22 @ 18:56 UTC
(41 minutes ago)
VFR
Wind Visibility
240° at 4 knots 10 miles
Clouds
  • Few at 3,000' AGL
  • Broken at 12,000' AGL
Temperature Dewpoint
9°C / 48°F -1°C / 30°F
Humidity Altimeter Pressure
50% 30.16" Hg 1021.9 hPa